Danville, IN

1:55 PM EDT on June 27, 2017 (GMT -0400)
Vermilion County

Weather History for KDNV - January, 2014

Change the Weather History Date:

Thursday, January 30, 2014

  Actual Average (KLAF) Record (KLAF)
Temperature  
Mean Temperature 26 °F -  
Max Temperature 34 °F 32 °F 65 °F (2013)
Min Temperature 18 °F 18 °F -12 °F (1966)
Degree Days  
Heating Degree Days 39    
Moisture  
Dew Point 10 °F    
Average Humidity 49    
Maximum Humidity 59    
Minimum Humidity 39    
Precipitation  
Precipitation 0.00 in - - ()
Sea Level Pressure  
Sea Level Pressure 29.91 in    
Wind  
Wind Speed 18 mph (SSW)    
Max Wind Speed 32 mph    
Max Gust Speed 44 mph    
Visibility 10 miles    
Events      
Averages and records for this station are not official NWS values.
T = Trace of Precipitation, MM = Missing Value Source: NWS Daily Summary

Daily Weather History Graph

Daily Weather History Graph

Search for Another Location

Airport or City:

Trip Planner

Search our weather history database for the weather conditions in past years. The results will help you decide how hot, cold, wet, or windy it might be!

Date:

Astronomy

Jan. 30, 2014 Rise Set
Actual Time 7:01 AM CST 5:06 PM CST
Civil Twilight 6:32 AM CST 5:35 PM CST
Nautical Twilight 5:59 AM CST 6:08 PM CST
Astronomical Twilight 5:27 AM CST 6:40 PM CST
Moon 6:26 AM CST (1/30) 5:18 PM CST (1/30)
Length of Visible Light 11h 03m
Length of Day
10h 05m
Waning Crescent, 0% of the Moon is Illuminated
Jan 30
Waning Crescent
Jan 30
New
Feb 6
First Quarter
Feb 14
Full
Feb 22
Last Quarter

Hourly Weather History & Observations

Time (CST) Temp. Windchill Dew Point Humidity Pressure Visibility Wind Dir Wind Speed Gust Speed Precip Events Conditions
12:15 AM 18.9 °F 5.3 °F 5.7 °F 57% 30.09 in 10.0 mi South 13.8 mph - N/A   Clear
12:35 AM 18.9 °F 4.3 °F 5.7 °F 57% 30.09 in 10.0 mi South 16.1 mph 21.9 mph N/A   Clear
12:55 AM 18.9 °F 4.3 °F 5.9 °F 57% 30.08 in 10.0 mi South 16.1 mph - N/A   Clear
1:15 AM 18.7 °F 5.1 °F 5.9 °F 58% 30.08 in 10.0 mi SSW 13.8 mph 20.7 mph N/A   Clear
1:35 AM 18.7 °F 3.1 °F 5.9 °F 58% 30.07 in 10.0 mi South 18.4 mph 24.2 mph N/A   Clear
1:55 AM 19.0 °F 3.2 °F 5.9 °F 57% 30.06 in 10.0 mi South 19.6 mph 25.3 mph N/A   Clear
2:15 AM 18.5 °F 3.8 °F 5.9 °F 58% 30.06 in 10.0 mi South 16.1 mph 23.0 mph N/A   Clear
2:35 AM 18.5 °F 3.8 °F 5.9 °F 58% 30.05 in 10.0 mi South 16.1 mph 23.0 mph N/A   Clear
2:55 AM 18.3 °F 3.6 °F 5.9 °F 58% 30.06 in 10.0 mi South 16.1 mph - N/A   Clear
3:15 AM 18.3 °F 3.6 °F 5.9 °F 58% 30.06 in 10.0 mi South 16.1 mph 21.9 mph N/A   Clear
3:35 AM 18.0 °F 3.1 °F 5.9 °F 59% 30.05 in 10.0 mi South 16.1 mph - N/A   Clear
3:55 AM 18.1 °F 2.4 °F 5.9 °F 59% 30.05 in 10.0 mi South 18.4 mph - N/A   Clear
4:15 AM 18.1 °F 2.9 °F 5.9 °F 59% 30.05 in 10.0 mi South 17.3 mph 25.3 mph N/A   Clear
4:35 AM 18.1 °F 2.4 °F 5.9 °F 59% 30.03 in 10.0 mi South 18.4 mph 26.5 mph N/A   Clear
4:55 AM 18.1 °F 3.4 °F 5.9 °F 59% 30.03 in 10.0 mi South 16.1 mph 25.3 mph N/A   Clear
5:15 AM 18.1 °F 2.4 °F 5.9 °F 59% 30.03 in 10.0 mi South 18.4 mph 21.9 mph N/A   Clear
5:35 AM 18.3 °F 3.1 °F 5.9 °F 58% 30.02 in 10.0 mi South 17.3 mph 24.2 mph N/A   Clear
5:55 AM 18.5 °F 2.9 °F 6.1 °F 58% 30.03 in 10.0 mi South 18.4 mph - N/A   Clear
6:15 AM 18.5 °F 2.4 °F 6.3 °F 59% 30.02 in 10.0 mi South 19.6 mph 24.2 mph N/A   Clear
6:35 AM 18.9 °F 3.8 °F 6.4 °F 58% 30.01 in 10.0 mi South 17.3 mph 26.5 mph N/A   Clear
6:55 AM 19.0 °F 3.6 °F 6.4 °F 58% 30.01 in 10.0 mi South 18.4 mph 23.0 mph N/A   Clear
7:15 AM 19.4 °F 4.1 °F 6.6 °F 58% 29.99 in 10.0 mi South 18.4 mph 27.6 mph N/A   Clear
7:35 AM 19.8 °F 4.5 °F 6.8 °F 57% 29.99 in 10.0 mi South 18.4 mph - N/A   Clear
7:55 AM 20.3 °F 5.7 °F 7.0 °F 56% 29.98 in 10.0 mi South 17.3 mph 24.2 mph N/A   Clear
8:15 AM 21.4 °F 6.6 °F 7.5 °F 55% 29.97 in 10.0 mi South 18.4 mph 27.6 mph N/A   Clear
8:35 AM 22.1 °F 6.8 °F 7.7 °F 54% 29.96 in 10.0 mi South 20.7 mph 27.6 mph N/A   Clear
8:55 AM 22.6 °F 7.9 °F 8.1 °F 54% 29.95 in 10.0 mi South 19.6 mph 26.5 mph N/A   Clear
9:15 AM 23.0 °F 8.3 °F 8.2 °F 53% 29.93 in 10.0 mi South 19.6 mph 27.6 mph N/A   Clear
9:35 AM 23.9 °F 8.8 °F 8.2 °F 51% 29.92 in 10.0 mi South 21.9 mph 32.2 mph N/A   Clear
9:55 AM 24.4 °F 9.2 °F 8.8 °F 51% 29.92 in 10.0 mi South 23.0 mph 29.9 mph N/A   Clear
10:15 AM 25.0 °F 9.5 °F 9.0 °F 51% 29.90 in 10.0 mi South 24.2 mph 34.5 mph N/A   Clear
10:35 AM 25.7 °F 10.8 °F 9.1 °F 50% 29.89 in 10.0 mi South 23.0 mph 31.1 mph N/A   Clear
10:55 AM 27.1 °F 12.7 °F 10.0 °F 49% 29.88 in 10.0 mi South 23.0 mph 31.1 mph N/A   Clear
11:15 AM 29.1 °F 14.2 °F 10.8 °F 46% 29.88 in 10.0 mi South 27.6 mph 33.4 mph N/A   Clear
11:35 AM 30.6 °F 16.7 °F 10.8 °F 44% 29.86 in 10.0 mi South 25.3 mph 34.5 mph N/A   Clear
11:55 AM 30.9 °F 17.8 °F 10.9 °F 43% 29.84 in 10.0 mi South 23.0 mph 39.1 mph N/A   Clear
12:15 PM 31.1 °F 16.4 °F 10.4 °F 42% 29.81 in 10.0 mi South 29.9 mph 43.7 mph N/A   Clear
12:35 PM 31.1 °F 15.9 °F 10.9 °F 43% 29.77 in 10.0 mi South 32.2 mph 35.7 mph N/A   Clear
12:55 PM 31.8 °F 16.9 °F 10.9 °F 42% 29.77 in 10.0 mi South 32.2 mph 40.3 mph N/A   Clear
1:15 PM 32.0 °F 17.4 °F 10.6 °F 41% 29.76 in 10.0 mi South 31.1 mph 40.3 mph N/A   Clear
1:35 PM 32.0 °F 17.9 °F 10.9 °F 42% 29.73 in 10.0 mi South 28.8 mph 34.5 mph N/A   Scattered Clouds
1:55 PM 32.0 °F 18.6 °F 11.3 °F 42% 29.74 in 10.0 mi South 25.3 mph 34.5 mph N/A   Mostly Cloudy
2:15 PM 32.2 °F 20.0 °F 11.7 °F 43% 29.74 in 10.0 mi South 20.7 mph 32.2 mph N/A   Scattered Clouds
2:35 PM 32.9 °F 21.6 °F 11.7 °F 41% 29.75 in 10.0 mi South 18.4 mph 35.7 mph N/A   Clear
2:55 PM 32.9 °F 20.1 °F 11.5 °F 41% 29.76 in 10.0 mi SSW 24.2 mph 33.4 mph N/A   Mostly Cloudy
3:15 PM 32.9 °F 20.1 °F 12.0 °F 42% 29.77 in 10.0 mi SSW 24.2 mph 31.1 mph N/A   Overcast
3:35 PM 33.3 °F 21.5 °F 12.6 °F 42% 29.78 in 10.0 mi SSW 20.7 mph 26.5 mph N/A   Overcast
3:55 PM 34.0 °F 21.0 °F 11.5 °F 39% 29.78 in 10.0 mi SSW 26.5 mph 32.2 mph N/A   Overcast
4:15 PM 34.0 °F 21.5 °F 11.7 °F 40% 29.78 in 10.0 mi SSW 24.2 mph 33.4 mph N/A   Overcast
4:35 PM 34.0 °F 22.7 °F 11.8 °F 40% 29.80 in 10.0 mi SSW 19.6 mph 29.9 mph N/A   Overcast
4:55 PM 33.8 °F 22.8 °F 12.4 °F 41% 29.83 in 10.0 mi SW 18.4 mph 24.2 mph N/A   Overcast
5:15 PM 34.2 °F 24.8 °F 12.7 °F 41% 29.83 in 10.0 mi SSW 13.8 mph 28.8 mph N/A   Overcast
5:35 PM 34.5 °F 23.8 °F 13.3 °F 42% 29.82 in 10.0 mi SW 18.4 mph 27.6 mph N/A   Overcast
5:55 PM 34.7 °F 25.9 °F 12.4 °F 40% 29.82 in 10.0 mi SSW 12.7 mph - N/A   Overcast
6:15 PM 34.2 °F 24.8 °F 13.3 °F 42% 29.83 in 10.0 mi SW 13.8 mph - N/A   Overcast
6:35 PM 34.2 °F 25.7 °F 13.5 °F 43% 29.84 in 10.0 mi SW 11.5 mph - N/A   Overcast
6:55 PM 34.0 °F 24.6 °F 13.5 °F 43% 29.85 in 10.0 mi SSW 13.8 mph 17.3 mph N/A   Overcast
7:15 PM 33.6 °F 25.0 °F 13.8 °F 44% 29.85 in 10.0 mi SSW 11.5 mph - N/A   Overcast
7:35 PM 33.3 °F 25.7 °F 14.2 °F 46% 29.86 in 10.0 mi SSW 9.2 mph - N/A   Overcast
7:55 PM 33.1 °F 24.4 °F 14.4 °F 46% 29.86 in 10.0 mi SSW 11.5 mph - N/A   Overcast
8:15 PM 33.8 °F 24.8 °F 14.0 °F 44% 29.86 in 10.0 mi SW 12.7 mph 17.3 mph N/A   Overcast
8:35 PM 34.0 °F 23.8 °F 13.6 °F 43% 29.86 in 10.0 mi SW 16.1 mph - N/A   Overcast
8:55 PM 33.8 °F 23.2 °F 13.8 °F 44% 29.86 in 10.0 mi SW 17.3 mph 20.7 mph N/A   Overcast
9:15 PM 33.8 °F 23.9 °F 14.0 °F 44% 29.87 in 10.0 mi SW 15.0 mph 23.0 mph N/A   Overcast
9:35 PM 34.0 °F 23.4 °F 13.8 °F 44% 29.88 in 10.0 mi SW 17.3 mph 26.5 mph N/A   Overcast
9:55 PM 34.0 °F 23.4 °F 14.2 °F 44% 29.89 in 10.0 mi SW 17.3 mph 24.2 mph N/A   Overcast
10:15 PM 34.2 °F 24.8 °F 14.2 °F 44% 29.89 in 10.0 mi SW 13.8 mph - N/A   Overcast
10:35 PM 34.3 °F 23.9 °F 14.2 °F 44% 29.89 in 10.0 mi SW 17.3 mph - N/A   Overcast
10:55 PM 33.8 °F 24.8 °F 14.5 °F 45% 29.90 in 10.0 mi SW 12.7 mph - N/A   Mostly Cloudy
11:15 PM 33.1 °F 24.4 °F 14.9 °F 47% 29.90 in 10.0 mi SW 11.5 mph 18.4 mph N/A   Clear
11:35 PM 32.9 °F 22.8 °F 14.9 °F 48% 29.90 in 10.0 mi WSW 15.0 mph - N/A   Clear
11:55 PM 32.5 °F 23.2 °F 14.9 °F 48% 29.90 in 10.0 mi SW 12.7 mph - N/A   Clear